JBU203 KBOS-TXKF
Flight info
| Callsign | JBU203 |
|---|---|
| Flight time | N/A |
| Altitude | 35000 |
| Route | BRUWN7 BRUWN DCT BORQE Y578 KAYYT/M076F350 L462 ANVER MOMOM1 |
| Aircraft | A321/M-SDE3FGHIRWY/LB1 |
Departure
| Time | N/A |
|---|---|
| Airport | Boston Logan International Airport (KBOS) |
Arrival
| Time | 2026-04-29 00:24 |
|---|---|
| Airport | L.F. Wade International Airport (TXKF) |
| Time | Latitude | Longitude | Altitude | Speed | Heading |
|---|---|---|---|---|---|
| 2026-04-28 23:41 | 37.01689 | -66.58144 | 34862 ft | 533 kts | 157° |
| 2026-04-28 23:41 | 36.98293 | -66.56381 | 34863 ft | 533 kts | 157° |
| 2026-04-28 23:42 | 36.91427 | -66.52823 | 34860 ft | 533 kts | 157° |
| 2026-04-28 23:42 | 36.84578 | -66.49283 | 34862 ft | 532 kts | 157° |
| 2026-04-28 23:43 | 36.77541 | -66.45653 | 34861 ft | 533 kts | 157° |
| 2026-04-28 23:43 | 36.70388 | -66.41975 | 34866 ft | 534 kts | 157° |
| 2026-04-28 23:44 | 36.63541 | -66.38457 | 34869 ft | 534 kts | 157° |
| 2026-04-28 23:44 | 36.56666 | -66.34933 | 34861 ft | 534 kts | 157° |
| 2026-04-28 23:45 | 36.49789 | -66.31416 | 34862 ft | 534 kts | 158° |
| 2026-04-28 23:45 | 36.42944 | -66.27918 | 34856 ft | 534 kts | 158° |
| 2026-04-28 23:46 | 36.36055 | -66.24413 | 34857 ft | 537 kts | 157° |
| 2026-04-28 23:46 | 36.29132 | -66.20881 | 34868 ft | 535 kts | 158° |
| 2026-04-28 23:47 | 36.22243 | -66.17383 | 34870 ft | 537 kts | 158° |
| 2026-04-28 23:47 | 36.15287 | -66.13869 | 34869 ft | 544 kts | 157° |
| 2026-04-28 23:48 | 36.08268 | -66.10312 | 34874 ft | 552 kts | 158° |
| 2026-04-28 23:48 | 36.00734 | -66.06509 | 34873 ft | 554 kts | 158° |
| 2026-04-28 23:49 | 35.93638 | -66.02935 | 34873 ft | 554 kts | 157° |
| 2026-04-28 23:49 | 35.86121 | -65.99159 | 34865 ft | 555 kts | 157° |
| 2026-04-28 23:50 | 35.78653 | -65.95409 | 34864 ft | 556 kts | 158° |
| 2026-04-28 23:50 | 35.71307 | -65.91728 | 34870 ft | 556 kts | 157° |
| 2026-04-28 23:51 | 35.64091 | -65.88112 | 34874 ft | 556 kts | 158° |
| 2026-04-28 23:51 | 35.56924 | -65.84545 | 34864 ft | 556 kts | 158° |
| 2026-04-28 23:52 | 35.49784 | -65.80988 | 34869 ft | 556 kts | 158° |
| 2026-04-28 23:52 | 35.42536 | -65.77384 | 34870 ft | 556 kts | 158° |
| 2026-04-28 23:53 | 35.35264 | -65.73777 | 34870 ft | 556 kts | 158° |
| 2026-04-28 23:53 | 35.28086 | -65.70330 | 34870 ft | 555 kts | 161° |
| 2026-04-28 23:54 | 35.20627 | -65.67799 | 34862 ft | 554 kts | 171° |
| 2026-04-28 23:54 | 35.13042 | -65.66205 | 34861 ft | 555 kts | 173° |
| 2026-04-28 23:55 | 35.05422 | -65.64680 | 34859 ft | 553 kts | 173° |
| 2026-04-28 23:55 | 34.97683 | -65.63096 | 34858 ft | 553 kts | 173° |
| 2026-04-28 23:56 | 34.90097 | -65.61537 | 34859 ft | 553 kts | 172° |
| 2026-04-28 23:56 | 34.82500 | -65.59965 | 34858 ft | 553 kts | 173° |
| 2026-04-28 23:57 | 34.74931 | -65.58408 | 34864 ft | 552 kts | 173° |
| 2026-04-28 23:57 | 34.66992 | -65.56776 | 34868 ft | 552 kts | 173° |
| 2026-04-28 23:58 | 34.59435 | -65.55221 | 34876 ft | 551 kts | 173° |
| 2026-04-28 23:58 | 34.51854 | -65.53674 | 34887 ft | 552 kts | 173° |
| 2026-04-28 23:59 | 34.44315 | -65.52125 | 34891 ft | 551 kts | 173° |
| 2026-04-28 23:59 | 34.36734 | -65.50582 | 34896 ft | 550 kts | 173° |
| 2026-04-29 00:00 | 34.29123 | -65.49037 | 34871 ft | 549 kts | 174° |
| 2026-04-29 00:00 | 34.24976 | -65.48199 | 34586 ft | 549 kts | 173° |
| 2026-04-29 00:00 | 34.20900 | -65.47375 | 34327 ft | 550 kts | 173° |
| 2026-04-29 00:01 | 34.17088 | -65.46603 | 34058 ft | 551 kts | 174° |
| 2026-04-29 00:01 | 34.13308 | -65.45834 | 33827 ft | 551 kts | 174° |
| 2026-04-29 00:01 | 34.09553 | -65.45077 | 33404 ft | 554 kts | 174° |
| 2026-04-29 00:01 | 34.05761 | -65.44311 | 32961 ft | 555 kts | 174° |
| 2026-04-29 00:02 | 34.01925 | -65.43532 | 32532 ft | 552 kts | 174° |
| 2026-04-29 00:02 | 33.98151 | -65.42767 | 31874 ft | 550 kts | 175° |
| 2026-04-29 00:02 | 33.94371 | -65.42005 | 31014 ft | 552 kts | 175° |
| 2026-04-29 00:02 | 33.90600 | -65.41248 | 30130 ft | 553 kts | 175° |
| 2026-04-29 00:03 | 33.86787 | -65.40481 | 29197 ft | 555 kts | 175° |
| 2026-04-29 00:03 | 33.83025 | -65.39726 | 28297 ft | 556 kts | 175° |
| 2026-04-29 00:03 | 33.79204 | -65.38957 | 27467 ft | 556 kts | 175° |
| 2026-04-29 00:03 | 33.75350 | -65.38175 | 26790 ft | 558 kts | 175° |
| 2026-04-29 00:04 | 33.71533 | -65.37412 | 26210 ft | 558 kts | 175° |
| 2026-04-29 00:04 | 33.67687 | -65.36652 | 25668 ft | 560 kts | 175° |
| 2026-04-29 00:04 | 33.63806 | -65.35887 | 25156 ft | 560 kts | 176° |
| 2026-04-29 00:04 | 33.59931 | -65.35129 | 24670 ft | 561 kts | 176° |
| 2026-04-29 00:05 | 33.56071 | -65.34370 | 24200 ft | 559 kts | 176° |
| 2026-04-29 00:05 | 33.52224 | -65.33612 | 23506 ft | 556 kts | 177° |
| 2026-04-29 00:05 | 33.48396 | -65.32858 | 22720 ft | 551 kts | 177° |
| 2026-04-29 00:05 | 33.44660 | -65.32126 | 22121 ft | 547 kts | 177° |
| 2026-04-29 00:06 | 33.40885 | -65.31387 | 21566 ft | 540 kts | 176° |
| 2026-04-29 00:06 | 33.37196 | -65.30664 | 21009 ft | 536 kts | 176° |
| 2026-04-29 00:06 | 33.33548 | -65.29949 | 20479 ft | 529 kts | 176° |
| 2026-04-29 00:06 | 33.29586 | -65.29172 | 19971 ft | 526 kts | 177° |
| 2026-04-29 00:07 | 33.26006 | -65.28471 | 19416 ft | 520 kts | 176° |
| 2026-04-29 00:07 | 33.22456 | -65.27778 | 18760 ft | 516 kts | 176° |
| 2026-04-29 00:07 | 33.18953 | -65.27095 | 18172 ft | 509 kts | 176° |
| 2026-04-29 00:07 | 33.15457 | -65.26413 | 17561 ft | 505 kts | 176° |
| 2026-04-29 00:08 | 33.11980 | -65.25735 | 16975 ft | 499 kts | 176° |
| 2026-04-29 00:08 | 33.08581 | -65.25040 | 16444 ft | 496 kts | 173° |
| 2026-04-29 00:08 | 33.05288 | -65.23560 | 15871 ft | 500 kts | 153° |
| 2026-04-29 00:08 | 33.02349 | -65.20716 | 15318 ft | 495 kts | 135° |
| 2026-04-29 00:09 | 33.00059 | -65.17697 | 14637 ft | 477 kts | 130° |
| 2026-04-29 00:09 | 32.97986 | -65.14776 | 14162 ft | 451 kts | 130° |
| 2026-04-29 00:09 | 32.95995 | -65.11999 | 13712 ft | 429 kts | 131° |
| 2026-04-29 00:09 | 32.94066 | -65.09390 | 13255 ft | 416 kts | 132° |
| 2026-04-29 00:10 | 32.92162 | -65.06884 | 12796 ft | 405 kts | 132° |
| 2026-04-29 00:10 | 32.90222 | -65.04375 | 12338 ft | 399 kts | 133° |
| 2026-04-29 00:10 | 32.88180 | -65.01760 | 11848 ft | 397 kts | 133° |
| 2026-04-29 00:10 | 32.86301 | -64.99367 | 11383 ft | 396 kts | 133° |
| 2026-04-29 00:11 | 32.84428 | -64.96993 | 10916 ft | 395 kts | 133° |
| 2026-04-29 00:11 | 32.82561 | -64.94630 | 10550 ft | 390 kts | 133° |
| 2026-04-29 00:11 | 32.78921 | -64.90019 | 10129 ft | 370 kts | 133° |
| 2026-04-29 00:12 | 32.77174 | -64.87806 | 10009 ft | 359 kts | 133° |
| 2026-04-29 00:12 | 32.75496 | -64.85685 | 9921 ft | 347 kts | 134° |
| 2026-04-29 00:12 | 32.73855 | -64.83613 | 9619 ft | 344 kts | 134° |
| 2026-04-29 00:12 | 32.72207 | -64.81533 | 9346 ft | 339 kts | 134° |
| 2026-04-29 00:13 | 32.70608 | -64.79514 | 9051 ft | 336 kts | 134° |
| 2026-04-29 00:13 | 32.69019 | -64.77513 | 8792 ft | 332 kts | 133° |
| 2026-04-29 00:13 | 32.67437 | -64.75519 | 8535 ft | 327 kts | 134° |
| 2026-04-29 00:13 | 32.65898 | -64.73580 | 8276 ft | 323 kts | 134° |
| 2026-04-29 00:14 | 32.64360 | -64.71646 | 7973 ft | 321 kts | 133° |
| 2026-04-29 00:14 | 32.62648 | -64.69492 | 7623 ft | 318 kts | 133° |
| 2026-04-29 00:14 | 32.61052 | -64.67485 | 7312 ft | 316 kts | 133° |
| 2026-04-29 00:14 | 32.59541 | -64.65585 | 7030 ft | 313 kts | 133° |
| 2026-04-29 00:15 | 32.58053 | -64.63715 | 6734 ft | 311 kts | 133° |
| 2026-04-29 00:15 | 32.56556 | -64.61835 | 6428 ft | 309 kts | 133° |
| 2026-04-29 00:15 | 32.54934 | -64.59798 | 6085 ft | 307 kts | 133° |
| 2026-04-29 00:15 | 32.53365 | -64.57827 | 5756 ft | 305 kts | 133° |
| 2026-04-29 00:16 | 32.51806 | -64.55872 | 5424 ft | 304 kts | 133° |
| 2026-04-29 00:16 | 32.50358 | -64.54057 | 5137 ft | 302 kts | 133° |
| 2026-04-29 00:16 | 32.48911 | -64.52245 | 4893 ft | 298 kts | 133° |
| 2026-04-29 00:16 | 32.47521 | -64.50436 | 4666 ft | 294 kts | 131° |
| 2026-04-29 00:17 | 32.46184 | -64.48640 | 4441 ft | 290 kts | 131° |
| 2026-04-29 00:17 | 32.44735 | -64.46681 | 4193 ft | 286 kts | 131° |
| 2026-04-29 00:17 | 32.43440 | -64.44939 | 3979 ft | 282 kts | 131° |
| 2026-04-29 00:17 | 32.41989 | -64.43420 | 3755 ft | 276 kts | 156° |
| 2026-04-29 00:18 | 32.40202 | -64.43002 | 3540 ft | 258 kts | 193° |
| 2026-04-29 00:18 | 32.38564 | -64.43706 | 3340 ft | 244 kts | 213° |
| 2026-04-29 00:18 | 32.37050 | -64.44553 | 3152 ft | 242 kts | 209° |
| 2026-04-29 00:18 | 32.35459 | -64.45244 | 3009 ft | 239 kts | 204° |
| 2026-04-29 00:19 | 32.33897 | -64.45770 | 2992 ft | 228 kts | 201° |
| 2026-04-29 00:19 | 32.32545 | -64.46465 | 3029 ft | 197 kts | 229° |
| 2026-04-29 00:19 | 32.32037 | -64.47731 | 3000 ft | 156 kts | 277° |
| 2026-04-29 00:19 | 32.32383 | -64.48827 | 2913 ft | 136 kts | 300° |
| 2026-04-29 00:20 | 32.32831 | -64.49775 | 2731 ft | 131 kts | 299° |
| 2026-04-29 00:20 | 32.33198 | -64.50751 | 2572 ft | 130 kts | 294° |
| 2026-04-29 00:20 | 32.33487 | -64.51762 | 2410 ft | 130 kts | 290° |
| 2026-04-29 00:20 | 32.33742 | -64.52776 | 2255 ft | 128 kts | 289° |
| 2026-04-29 00:21 | 32.33970 | -64.53809 | 2100 ft | 128 kts | 287° |
| 2026-04-29 00:21 | 32.34168 | -64.54833 | 1935 ft | 128 kts | 286° |
| 2026-04-29 00:21 | 32.34350 | -64.55858 | 1767 ft | 128 kts | 285° |
| 2026-04-29 00:21 | 32.34525 | -64.56885 | 1597 ft | 127 kts | 285° |
| 2026-04-29 00:22 | 32.34711 | -64.57981 | 1415 ft | 127 kts | 285° |
| 2026-04-29 00:22 | 32.34887 | -64.59019 | 1248 ft | 127 kts | 285° |
| 2026-04-29 00:22 | 32.35061 | -64.60035 | 1099 ft | 126 kts | 285° |
| 2026-04-29 00:22 | 32.35222 | -64.61058 | 929 ft | 126 kts | 284° |
| 2026-04-29 00:23 | 32.35413 | -64.62060 | 770 ft | 126 kts | 287° |
| 2026-04-29 00:23 | 32.35606 | -64.63068 | 542 ft | 125 kts | 284° |
| 2026-04-29 00:23 | 32.35764 | -64.64086 | 417 ft | 125 kts | 283° |
| 2026-04-29 00:23 | 32.35926 | -64.65087 | 253 ft | 125 kts | 284° |
| 2026-04-29 00:24 | 32.36095 | -64.66099 | 95 ft | 126 kts | 284° |
| 2026-04-29 00:24 | 32.36270 | -64.67091 | 23 ft | 113 kts | 283° |
| 2026-04-29 00:24 | 32.36394 | -64.67806 | 28 ft | 64 kts | 281° |
| 2026-04-29 00:24 | 32.36463 | -64.68198 | 23 ft | 45 kts | 279° |
| 2026-04-29 00:25 | 32.36520 | -64.68542 | 22 ft | 40 kts | 281° |
| 2026-04-29 00:25 | 32.36573 | -64.68852 | 22 ft | 35 kts | 282° |
| 2026-04-29 00:25 | 32.36623 | -64.69118 | 23 ft | 27 kts | 277° |
| 2026-04-29 00:25 | 32.36566 | -64.69321 | 23 ft | 24 kts | 246° |
| 2026-04-29 00:26 | 32.36502 | -64.69501 | 22 ft | 23 kts | 250° |
| 2026-04-29 00:26 | 32.36442 | -64.69681 | 22 ft | 22 kts | 252° |
| 2026-04-29 00:26 | 32.36382 | -64.69843 | 24 ft | 20 kts | 243° |
| 2026-04-29 00:26 | 32.36327 | -64.69996 | 25 ft | 19 kts | 249° |
| 2026-04-29 00:27 | 32.36282 | -64.70121 | 25 ft | 7 kts | 246° |
| 2026-04-29 00:27 | 32.36279 | -64.70129 | 25 ft | 4 kts | 246° |
| 2026-04-29 00:27 | 32.36275 | -64.70184 | 24 ft | 6 kts | 298° |
| 2026-04-29 00:27 | 32.36311 | -64.70219 | 24 ft | 5 kts | 296° |
| 2026-04-29 00:28 | 32.36306 | -64.70271 | 23 ft | 7 kts | 252° |
| 2026-04-29 00:28 | 32.36292 | -64.70313 | 22 ft | 2 kts | 248° |
| 2026-04-29 00:28 | 32.36288 | -64.70325 | 22 ft | 0 kts | 248° |
| 2026-04-29 00:28 | 32.36286 | -64.70328 | 22 ft | 0 kts | 248° |